createdAt,value
2023-01-28T00:02:21.232Z,5.27
2023-01-28T00:04:47.913Z,5.33
2023-01-28T00:07:14.567Z,5.31
2023-01-28T00:09:41.183Z,5.32
2023-01-28T00:12:07.840Z,5.09
2023-01-28T00:14:34.495Z,5.21
2023-01-28T00:17:01.186Z,5.20
2023-01-28T00:19:27.800Z,5.18
2023-01-28T00:21:54.474Z,5.28
2023-01-28T00:24:21.125Z,5.30
2023-01-28T00:26:47.816Z,5.32
2023-01-28T00:29:14.525Z,5.31
2023-01-28T00:31:41.248Z,5.25
2023-01-28T00:34:07.988Z,4.86
2023-01-28T00:36:34.665Z,4.87
2023-01-28T00:39:01.303Z,5.11
2023-01-28T00:41:27.984Z,5.04
2023-01-28T00:43:54.673Z,4.84
2023-01-28T00:46:21.651Z,4.62
2023-01-28T00:48:48.317Z,4.67
2023-01-28T00:51:14.963Z,4.80
2023-01-28T00:53:41.599Z,4.98
2023-01-28T00:56:08.262Z,4.98
2023-01-28T00:58:34.915Z,5.17
2023-01-28T01:01:01.545Z,5.25
2023-01-28T01:03:28.180Z,5.22
2023-01-28T01:05:54.850Z,5.27
2023-01-28T01:08:21.534Z,5.26
2023-01-28T01:10:48.209Z,5.36
2023-01-28T01:13:14.933Z,5.38
2023-01-28T01:15:41.583Z,5.49
2023-01-28T01:18:08.250Z,5.50
2023-01-28T01:20:34.858Z,5.51
2023-01-28T01:23:01.575Z,5.27
2023-01-28T01:25:28.205Z,5.04
2023-01-28T01:27:54.806Z,4.72
2023-01-28T01:30:21.473Z,5.04
2023-01-28T01:32:48.150Z,5.07
2023-01-28T01:35:15.239Z,4.97
2023-01-28T01:37:42.037Z,5.20
2023-01-28T01:40:08.713Z,4.96
2023-01-28T01:42:35.315Z,5.11
2023-01-28T01:45:02.003Z,5.21
2023-01-28T01:47:28.655Z,5.17
2023-01-28T01:49:55.344Z,4.93
2023-01-28T01:52:21.985Z,4.66
2023-01-28T01:54:48.664Z,4.56
2023-01-28T01:57:15.327Z,4.57
2023-01-28T01:59:41.924Z,4.34
2023-01-28T02:02:08.704Z,4.40
2023-01-28T02:04:35.338Z,4.51
2023-01-28T02:07:02.061Z,4.74
2023-01-28T02:09:28.769Z,4.56
2023-01-28T02:11:55.378Z,4.50
2023-01-28T02:14:30.506Z,4.75
2023-01-28T02:16:57.969Z,4.67
2023-01-28T02:19:24.682Z,4.65
2023-01-28T02:21:51.327Z,4.57
2023-01-28T02:24:18.019Z,4.70
2023-01-28T02:26:44.724Z,4.57
2023-01-28T02:29:11.432Z,4.57
2023-01-28T02:31:38.342Z,4.53
2023-01-28T02:34:05.123Z,4.60
2023-01-28T02:36:31.842Z,4.59
2023-01-28T02:38:58.491Z,4.70
2023-01-28T02:41:25.196Z,4.85
2023-01-28T02:43:51.878Z,4.60
2023-01-28T02:46:18.612Z,4.49
2023-01-28T02:48:45.330Z,4.50
2023-01-28T02:51:11.967Z,4.80
2023-01-28T02:53:38.651Z,4.98
2023-01-28T02:56:05.283Z,4.93
2023-01-28T02:58:32.004Z,4.73
2023-01-28T03:00:58.719Z,4.68
2023-01-28T03:03:25.403Z,4.53
2023-01-28T03:05:52.079Z,4.53
2023-01-28T03:08:18.781Z,4.75
2023-01-28T03:10:45.417Z,4.57
2023-01-28T03:13:12.078Z,4.43
2023-01-28T03:15:38.825Z,4.44
2023-01-28T03:18:05.550Z,4.52
2023-01-28T03:20:32.206Z,4.39
2023-01-28T03:22:58.863Z,4.14
2023-01-28T03:25:25.483Z,4.23
2023-01-28T03:27:52.078Z,4.00
2023-01-28T03:30:18.745Z,3.98
2023-01-28T03:32:45.429Z,4.22
2023-01-28T03:35:12.229Z,4.25
2023-01-28T03:37:38.891Z,4.35
2023-01-28T03:40:05.606Z,4.87
2023-01-28T03:42:32.305Z,4.79
2023-01-28T03:44:58.921Z,4.65
2023-01-28T03:47:28.009Z,4.45
2023-01-28T03:49:55.156Z,4.14
2023-01-28T03:52:21.784Z,3.94
2023-01-28T03:54:48.451Z,3.74
2023-01-28T03:57:15.100Z,4.03
2023-01-28T03:59:41.692Z,4.12
2023-01-28T04:02:08.396Z,4.24
2023-01-28T04:04:35.107Z,4.16
2023-01-28T04:07:01.783Z,4.18
2023-01-28T04:09:28.402Z,4.43
2023-01-28T04:11:55.077Z,4.44
2023-01-28T04:14:21.679Z,4.15
2023-01-28T04:16:48.381Z,3.99
2023-01-28T04:19:15.054Z,4.00
2023-01-28T04:21:41.686Z,4.12
2023-01-28T04:24:08.378Z,4.20
2023-01-28T04:26:35.109Z,3.80
2023-01-28T04:29:01.709Z,3.86
2023-01-28T04:31:28.434Z,4.27
2023-01-28T04:33:55.126Z,4.31
2023-01-28T04:36:21.769Z,4.04
2023-01-28T04:38:48.406Z,4.23
2023-01-28T04:41:15.068Z,4.20
2023-01-28T04:43:41.751Z,4.34
2023-01-28T04:46:08.450Z,4.50
2023-01-28T04:48:35.092Z,4.17
2023-01-28T04:51:01.752Z,3.69
2023-01-28T04:53:28.452Z,3.75
2023-01-28T04:55:55.109Z,3.68
2023-01-28T04:58:21.718Z,3.64
2023-01-28T05:00:48.395Z,3.88
2023-01-28T05:03:15.111Z,3.82
2023-01-28T05:05:41.767Z,3.88
2023-01-28T05:08:08.440Z,4.07
2023-01-28T05:10:35.115Z,3.78
2023-01-28T05:13:01.773Z,4.02
2023-01-28T05:15:28.426Z,3.97
2023-01-28T05:17:55.032Z,3.82
2023-01-28T05:20:21.700Z,3.94
2023-01-28T05:22:48.309Z,3.86
2023-01-28T05:25:15.302Z,3.54
2023-01-28T05:27:42.139Z,3.50
2023-01-28T05:30:08.819Z,3.60
2023-01-28T05:32:35.516Z,4.02
2023-01-28T05:35:02.259Z,4.23
2023-01-28T05:37:28.985Z,4.19
2023-01-28T05:39:55.579Z,3.88
2023-01-28T05:42:22.195Z,4.26
2023-01-28T05:44:48.865Z,4.26
2023-01-28T05:47:15.469Z,4.40
2023-01-28T05:49:42.137Z,4.37
2023-01-28T05:52:08.846Z,4.44
2023-01-28T05:54:35.507Z,4.38
2023-01-28T05:57:02.182Z,4.49
2023-01-28T05:59:28.869Z,4.32
2023-01-28T06:01:55.487Z,4.55
2023-01-28T06:04:22.153Z,4.78
2023-01-28T06:06:48.797Z,4.86
2023-01-28T06:09:15.448Z,4.88
2023-01-28T06:11:42.138Z,5.07
2023-01-28T06:14:08.774Z,5.22
2023-01-28T06:16:35.449Z,5.40
2023-01-28T06:19:02.285Z,5.36
2023-01-28T06:21:30.223Z,5.39
2023-01-28T06:23:57.099Z,5.32
2023-01-28T06:26:23.735Z,5.30
2023-01-28T06:28:50.391Z,5.38
2023-01-28T06:31:17.099Z,5.45
2023-01-28T06:33:43.764Z,5.44
2023-01-28T06:36:10.455Z,5.42
2023-01-28T06:38:37.123Z,5.27
2023-01-28T06:41:03.821Z,5.25
2023-01-28T06:43:30.516Z,5.29
2023-01-28T06:45:57.208Z,5.38
2023-01-28T06:48:23.913Z,5.43
2023-01-28T06:50:50.534Z,5.28
2023-01-28T06:53:17.193Z,5.28
2023-01-28T06:55:43.822Z,5.38
2023-01-28T06:58:10.435Z,5.44
2023-01-28T07:00:37.033Z,5.46
2023-01-28T07:03:03.754Z,5.48
2023-01-28T07:05:30.396Z,5.45
2023-01-28T07:07:57.115Z,5.42
2023-01-28T07:10:23.784Z,5.50
2023-01-28T07:12:50.436Z,5.55
2023-01-28T07:15:17.131Z,5.61
2023-01-28T07:17:43.779Z,5.61
2023-01-28T07:20:10.500Z,5.71
2023-01-28T07:22:37.108Z,5.51
2023-01-28T07:25:03.877Z,5.64
2023-01-28T07:27:30.573Z,5.68
2023-01-28T07:29:57.258Z,5.81
2023-01-28T07:32:23.920Z,5.93
2023-01-28T07:34:50.664Z,5.96
2023-01-28T07:37:17.279Z,5.99
2023-01-28T07:39:43.947Z,6.09
2023-01-28T07:42:10.539Z,6.04
2023-01-28T07:44:37.218Z,5.99
2023-01-28T07:47:03.940Z,6.03
2023-01-28T07:49:30.640Z,6.04
2023-01-28T07:51:57.319Z,6.06
2023-01-28T07:54:23.987Z,5.97
2023-01-28T07:56:50.668Z,6.01
2023-01-28T07:59:17.281Z,6.05
2023-01-28T08:01:43.939Z,6.22
2023-01-28T08:04:10.810Z,6.30
2023-01-28T08:06:37.559Z,6.35
2023-01-28T08:09:04.250Z,6.21
2023-01-28T08:11:30.870Z,5.93
2023-01-28T08:13:57.553Z,6.01
2023-01-28T08:16:24.200Z,5.93
2023-01-28T08:18:50.846Z,6.06
2023-01-28T08:21:17.494Z,6.30
2023-01-28T08:23:44.100Z,5.95
2023-01-28T08:26:10.770Z,5.77
2023-01-28T08:28:37.387Z,5.89
2023-01-28T08:31:04.134Z,6.31
2023-01-28T08:33:30.843Z,6.24
2023-01-28T08:35:57.477Z,6.42
2023-01-28T08:38:24.094Z,6.48
2023-01-28T08:40:50.806Z,6.04
2023-01-28T08:43:17.501Z,6.12
2023-01-28T08:45:44.165Z,6.36
2023-01-28T08:48:10.913Z,6.37
2023-01-28T08:50:37.575Z,6.40
2023-01-28T08:53:04.267Z,6.22
2023-01-28T08:55:30.921Z,6.27
2023-01-28T08:57:58.666Z,6.19
2023-01-28T09:00:25.515Z,6.01
2023-01-28T09:02:52.302Z,5.78
2023-01-28T09:05:19.005Z,6.03
2023-01-28T09:07:45.741Z,6.35
2023-01-28T09:10:12.483Z,6.46
2023-01-28T09:12:39.132Z,6.35
2023-01-28T09:15:05.765Z,6.47
2023-01-28T09:17:32.403Z,6.42
2023-01-28T09:19:59.095Z,6.55
2023-01-28T09:22:25.711Z,6.49
2023-01-28T09:24:52.322Z,6.74
2023-01-28T09:27:18.942Z,6.88
2023-01-28T09:29:45.663Z,6.35
2023-01-28T09:32:12.308Z,6.56
2023-01-28T09:34:38.992Z,6.64
2023-01-28T09:37:05.669Z,6.55
2023-01-28T09:39:32.301Z,6.62
2023-01-28T09:41:58.993Z,6.63
2023-01-28T09:44:25.663Z,6.81
2023-01-28T09:46:52.405Z,7.10
2023-01-28T09:49:19.079Z,7.05
2023-01-28T09:51:45.735Z,6.60
2023-01-28T09:54:12.358Z,6.72
2023-01-28T09:56:39.010Z,6.99
2023-01-28T09:59:05.708Z,7.17
2023-01-28T10:01:34.781Z,7.24
2023-01-28T10:04:01.458Z,6.91
2023-01-28T10:06:28.081Z,7.10
2023-01-28T10:08:54.719Z,7.23
2023-01-28T10:11:21.348Z,7.22
2023-01-28T10:13:48.034Z,7.08
2023-01-28T10:16:14.705Z,6.90
2023-01-28T10:18:41.359Z,6.86
2023-01-28T10:21:08.015Z,7.02
2023-01-28T10:23:34.748Z,6.94
2023-01-28T10:28:45.966Z,7.19
2023-01-28T10:31:12.683Z,7.34
2023-01-28T10:33:39.372Z,7.47
2023-01-28T10:36:06.033Z,7.46
2023-01-28T10:38:32.671Z,7.10
2023-01-28T10:40:59.316Z,7.36
2023-01-28T10:48:39.819Z,7.44
2023-01-28T10:51:06.592Z,7.49
2023-01-28T10:53:33.184Z,7.47
2023-01-28T10:55:59.849Z,6.89
2023-01-28T10:58:26.555Z,6.53
2023-01-28T11:00:53.214Z,6.84
2023-01-28T11:03:19.898Z,7.09
2023-01-28T11:05:48.817Z,7.29
2023-01-28T11:08:15.477Z,7.36
2023-01-28T11:10:42.099Z,7.47
2023-01-28T11:13:08.672Z,6.80
2023-01-28T11:15:35.307Z,6.25
2023-01-28T11:18:01.934Z,5.97
2023-01-28T11:20:28.663Z,6.12
2023-01-28T11:22:55.776Z,6.71
2023-01-28T11:25:22.436Z,7.12
2023-01-28T11:27:49.072Z,7.02
2023-01-28T11:30:15.968Z,6.72
2023-01-28T11:32:42.778Z,6.85
2023-01-28T11:35:09.421Z,7.26
2023-01-28T11:37:36.114Z,7.66
2023-01-28T11:40:02.760Z,7.70
2023-01-28T11:42:29.399Z,7.84
2023-01-28T11:44:56.123Z,7.44
2023-01-28T11:47:22.894Z,6.77
2023-01-28T11:49:49.800Z,6.33
2023-01-28T11:52:16.427Z,6.86
2023-01-28T11:54:43.396Z,7.18
2023-01-28T11:57:10.128Z,7.12
2023-01-28T11:59:36.822Z,6.83
2023-01-28T12:02:03.497Z,6.40
2023-01-28T12:04:30.157Z,5.67
2023-01-28T12:06:57.045Z,5.55
2023-01-28T12:09:23.712Z,5.62
2023-01-28T12:11:50.351Z,5.62
2023-01-28T12:14:17.039Z,5.61
2023-01-28T12:16:43.917Z,5.73
2023-01-28T12:19:10.632Z,6.15
2023-01-28T12:21:37.284Z,5.89
2023-01-28T12:24:07.342Z,6.15
2023-01-28T12:26:34.092Z,6.48
2023-01-28T12:29:00.794Z,6.65
2023-01-28T12:31:27.553Z,6.19
2023-01-28T12:33:54.412Z,6.14
2023-01-28T12:36:21.129Z,6.81
2023-01-28T12:38:47.842Z,6.76
2023-01-28T12:41:14.888Z,6.43
2023-01-28T12:43:41.529Z,6.50
2023-01-28T12:46:08.338Z,6.28
2023-01-28T12:48:35.109Z,5.67
2023-01-28T12:51:01.736Z,6.36
2023-01-28T12:53:28.385Z,6.76
2023-01-28T12:55:55.061Z,6.46
2023-01-28T12:58:21.917Z,6.92
2023-01-28T13:00:48.537Z,7.17
2023-01-28T13:03:15.304Z,7.10
2023-01-28T13:05:41.968Z,6.84
2023-01-28T13:08:08.719Z,6.63
2023-01-28T13:10:35.359Z,6.66
2023-01-28T13:13:01.980Z,6.72
2023-01-28T13:15:28.649Z,6.64
2023-01-28T13:17:55.324Z,6.40
2023-01-28T13:20:21.955Z,6.71
2023-01-28T13:22:48.675Z,7.13
2023-01-28T13:25:15.761Z,7.20
2023-01-28T13:27:42.749Z,7.48
2023-01-28T13:30:09.347Z,7.56
2023-01-28T13:32:36.104Z,7.46
2023-01-28T13:35:02.840Z,7.50
2023-01-28T13:37:29.460Z,7.67
2023-01-28T13:39:56.079Z,7.88
2023-01-28T13:42:22.747Z,7.57
2023-01-28T13:44:49.382Z,7.56
2023-01-28T13:47:16.045Z,7.70
2023-01-28T13:49:42.704Z,7.90
2023-01-28T13:52:09.323Z,8.05
2023-01-28T13:54:35.960Z,7.91
2023-01-28T13:57:03.908Z,7.62
2023-01-28T13:59:30.592Z,7.67
2023-01-28T14:01:57.272Z,7.19
2023-01-28T14:04:24.194Z,7.34
2023-01-28T14:06:50.872Z,7.30
2023-01-28T14:09:19.333Z,7.13
2023-01-28T14:11:46.679Z,7.19
2023-01-28T14:14:13.461Z,7.29
2023-01-28T14:16:40.146Z,7.24
2023-01-28T14:19:08.363Z,7.01
2023-01-28T14:21:35.052Z,7.24
2023-01-28T14:24:01.750Z,7.40
2023-01-28T14:26:28.653Z,7.31
2023-01-28T14:28:55.289Z,7.46
2023-01-28T14:31:22.038Z,7.43
2023-01-28T14:33:48.718Z,7.35
2023-01-28T14:36:15.493Z,7.40
2023-01-28T14:38:42.094Z,7.62
2023-01-28T14:41:08.756Z,7.67
2023-01-28T14:43:35.406Z,7.81
2023-01-28T14:46:04.114Z,7.76
2023-01-28T14:48:31.713Z,7.56
2023-01-28T14:50:58.403Z,7.52
2023-01-28T14:53:25.424Z,7.54
2023-01-28T14:55:52.078Z,7.42
2023-01-28T14:58:18.730Z,7.45
2023-01-28T15:00:45.407Z,7.51
2023-01-28T15:03:24.142Z,7.54
2023-01-28T15:05:51.231Z,7.47
2023-01-28T15:08:17.849Z,7.53
2023-01-28T15:10:44.575Z,7.48
2023-01-28T15:13:11.260Z,7.23
2023-01-28T15:15:37.950Z,7.25
2023-01-28T15:18:04.558Z,7.36
2023-01-28T15:20:31.178Z,7.32
2023-01-28T15:22:57.854Z,7.15
2023-01-28T15:25:24.460Z,6.50
2023-01-28T15:27:51.299Z,6.35
2023-01-28T15:30:18.273Z,6.07
2023-01-28T15:32:45.006Z,6.30
2023-01-28T15:35:11.635Z,6.64
2023-01-28T15:37:38.371Z,6.82
2023-01-28T15:40:05.030Z,6.93
2023-01-28T15:42:31.883Z,7.03
2023-01-28T15:44:58.504Z,7.00
2023-01-28T15:47:25.208Z,7.02
2023-01-28T15:49:51.810Z,7.09
2023-01-28T15:52:18.510Z,7.03
2023-01-28T15:54:45.207Z,6.71
2023-01-28T15:57:12.056Z,6.56
2023-01-28T15:59:38.742Z,6.43
2023-01-28T16:02:05.818Z,6.69
2023-01-28T16:04:32.475Z,6.63
2023-01-28T16:06:59.167Z,6.76
2023-01-28T16:09:25.833Z,6.07
2023-01-28T16:11:52.487Z,5.36
2023-01-28T16:14:19.165Z,5.07
2023-01-28T16:16:45.800Z,5.28
2023-01-28T16:19:12.461Z,5.70
2023-01-28T16:21:39.127Z,5.91
2023-01-28T16:24:05.860Z,5.95
2023-01-28T16:26:32.556Z,5.51
2023-01-28T16:28:59.208Z,5.34
2023-01-28T16:31:26.149Z,5.44
2023-01-28T16:33:52.849Z,5.77
2023-01-28T16:36:19.545Z,5.97
2023-01-28T16:38:46.257Z,5.51
2023-01-28T16:41:12.948Z,5.25
2023-01-28T16:43:39.553Z,5.02
2023-01-28T16:46:09.237Z,4.95
2023-01-28T16:48:36.538Z,4.94
2023-01-28T16:51:03.126Z,4.87
2023-01-28T16:53:29.788Z,4.96
2023-01-28T16:55:56.442Z,5.03
2023-01-28T16:58:23.177Z,5.05
2023-01-28T17:00:49.843Z,5.36
2023-01-28T17:03:16.532Z,5.51
2023-01-28T17:05:43.144Z,5.75
2023-01-28T17:08:09.793Z,5.06
2023-01-28T17:10:36.531Z,5.29
2023-01-28T17:13:03.219Z,5.58
2023-01-28T17:15:29.867Z,5.88
2023-01-28T17:17:56.528Z,5.93
2023-01-28T17:20:23.253Z,5.73
2023-01-28T17:22:49.858Z,5.46
2023-01-28T17:25:16.835Z,5.61
2023-01-28T17:27:43.608Z,5.77
2023-01-28T17:30:10.289Z,5.74
2023-01-28T17:32:36.931Z,5.31
2023-01-28T17:35:03.580Z,5.11
2023-01-28T17:37:30.185Z,5.25
2023-01-28T17:39:56.875Z,5.11
2023-01-28T17:42:23.558Z,5.27
2023-01-28T17:44:50.154Z,5.56
2023-01-28T17:47:16.769Z,5.51
2023-01-28T17:49:43.452Z,5.54
2023-01-28T17:52:10.118Z,5.56
2023-01-28T17:54:36.703Z,5.32
2023-01-28T17:57:03.372Z,5.53
2023-01-28T17:59:29.990Z,5.80
2023-01-28T18:01:56.623Z,6.00
2023-01-28T18:04:23.299Z,5.65
2023-01-28T18:06:50.041Z,5.60
2023-01-28T18:09:16.660Z,5.57
2023-01-28T18:11:43.270Z,5.67
2023-01-28T18:14:09.932Z,5.81
2023-01-28T18:16:36.569Z,6.13
2023-01-28T18:19:03.248Z,6.15
2023-01-28T18:21:31.669Z,6.04
2023-01-28T18:24:01.431Z,6.12
2023-01-28T18:26:28.119Z,6.26
2023-01-28T18:28:54.718Z,6.21
2023-01-28T18:31:21.385Z,6.18
2023-01-28T18:33:48.094Z,6.10
2023-01-28T18:36:14.719Z,6.20
2023-01-28T18:38:41.303Z,6.26
2023-01-28T18:41:07.925Z,6.17
2023-01-28T18:43:34.588Z,5.98
2023-01-28T18:46:01.304Z,5.62
2023-01-28T18:48:27.956Z,5.79
2023-01-28T18:50:54.603Z,5.78
2023-01-28T18:53:21.248Z,5.95
2023-01-28T18:55:47.891Z,6.18
2023-01-28T18:58:14.607Z,6.11
2023-01-28T19:00:41.256Z,6.15
2023-01-28T19:03:07.902Z,6.10
2023-01-28T19:05:37.707Z,6.26
2023-01-28T19:08:04.432Z,6.30
2023-01-28T19:10:31.233Z,6.36
2023-01-28T19:12:57.926Z,6.36
2023-01-28T19:15:24.633Z,6.24
2023-01-28T19:17:51.292Z,5.89
2023-01-28T19:20:17.980Z,5.77
2023-01-28T19:22:47.669Z,5.72
2023-01-28T19:25:14.741Z,5.61
2023-01-28T19:27:41.540Z,5.45
2023-01-28T19:30:08.155Z,5.77
2023-01-28T19:32:34.836Z,6.02
2023-01-28T19:35:01.581Z,5.86
2023-01-28T19:37:28.213Z,5.86
2023-01-28T19:39:54.893Z,5.88
2023-01-28T19:42:21.559Z,6.03
2023-01-28T19:44:48.151Z,6.06
2023-01-28T19:47:14.812Z,6.09
2023-01-28T19:49:41.581Z,6.00
2023-01-28T19:52:08.218Z,5.98
2023-01-28T19:54:34.921Z,6.14
2023-01-28T19:57:01.584Z,6.17
2023-01-28T19:59:28.652Z,6.05
2023-01-28T20:01:55.320Z,5.92
2023-01-28T20:04:21.968Z,5.76
2023-01-28T20:06:48.629Z,5.96
2023-01-28T20:09:15.294Z,6.08
2023-01-28T20:11:41.964Z,6.17
2023-01-28T20:14:08.568Z,6.24
2023-01-28T20:16:35.196Z,6.33
2023-01-28T20:19:01.832Z,6.40
2023-01-28T20:21:28.473Z,6.44
2023-01-28T20:23:55.175Z,6.42
2023-01-28T20:26:21.871Z,6.51
2023-01-28T20:28:48.577Z,6.40
2023-01-28T20:31:15.297Z,6.28
2023-01-28T20:33:42.022Z,6.09
2023-01-28T20:36:08.647Z,6.06
2023-01-28T20:38:35.314Z,6.11
2023-01-28T20:41:01.926Z,6.24
2023-01-28T20:43:28.804Z,6.34
2023-01-28T20:45:55.508Z,6.25
2023-01-28T20:48:22.209Z,6.21
2023-01-28T20:50:48.853Z,5.80
2023-01-28T20:53:15.508Z,5.82
2023-01-28T20:55:42.192Z,5.90
2023-01-28T20:58:08.812Z,5.89
2023-01-28T21:00:35.558Z,5.82
2023-01-28T21:03:02.210Z,5.83
2023-01-28T21:05:28.874Z,5.92
2023-01-28T21:07:55.511Z,6.11
2023-01-28T21:10:22.160Z,6.32
2023-01-28T21:12:48.840Z,6.20
2023-01-28T21:15:15.478Z,5.87
2023-01-28T21:17:42.080Z,5.29
2023-01-28T21:20:08.729Z,5.35
2023-01-28T21:22:35.379Z,5.80
2023-01-28T21:25:04.352Z,5.87
2023-01-28T21:27:31.992Z,5.73
2023-01-28T21:29:58.770Z,5.82
2023-01-28T21:32:27.573Z,6.05
2023-01-28T21:34:54.277Z,6.04
2023-01-28T21:37:20.902Z,6.15
2023-01-28T21:39:47.738Z,6.01
2023-01-28T21:42:14.412Z,6.04
2023-01-28T21:44:41.015Z,6.17
2023-01-28T21:47:07.682Z,5.78
2023-01-28T21:49:34.284Z,5.74
2023-01-28T21:52:00.952Z,5.61
2023-01-28T21:54:27.579Z,5.59
2023-01-28T21:56:54.196Z,5.60
2023-01-28T21:59:20.832Z,5.83
2023-01-28T22:01:47.506Z,5.93
2023-01-28T22:04:14.275Z,5.83
2023-01-28T22:06:41.098Z,5.78
2023-01-28T22:09:07.784Z,5.82
2023-01-28T22:11:34.459Z,5.57
2023-01-28T22:14:01.149Z,5.45
2023-01-28T22:16:27.798Z,5.34
2023-01-28T22:18:54.435Z,5.53
2023-01-28T22:21:21.053Z,5.50
2023-01-28T22:23:47.717Z,5.59
2023-01-28T22:26:14.292Z,5.73
2023-01-28T22:28:40.959Z,5.80
2023-01-28T22:31:07.716Z,6.01
2023-01-28T22:33:34.385Z,6.23
2023-01-28T22:36:01.220Z,6.29
2023-01-28T22:38:27.833Z,6.33
2023-01-28T22:40:54.533Z,6.39
2023-01-28T22:43:21.243Z,6.41
2023-01-28T22:45:47.927Z,6.48
2023-01-28T22:48:14.583Z,6.17
2023-01-28T22:50:41.265Z,5.90
2023-01-28T22:53:07.948Z,5.87
2023-01-28T22:55:34.601Z,5.89
2023-01-28T22:58:01.256Z,5.85
2023-01-28T23:00:27.874Z,5.86
2023-01-28T23:02:54.506Z,6.00
2023-01-28T23:05:21.339Z,5.97
2023-01-28T23:07:48.030Z,6.20
2023-01-28T23:10:15.060Z,6.30
2023-01-28T23:12:41.846Z,6.28
2023-01-28T23:15:08.461Z,6.35
2023-01-28T23:17:35.091Z,6.39
2023-01-28T23:20:01.753Z,6.56
2023-01-28T23:22:28.375Z,6.41
2023-01-28T23:24:54.992Z,6.43
2023-01-28T23:27:21.635Z,6.49
2023-01-28T23:29:48.284Z,6.50
2023-01-28T23:32:14.890Z,6.60
2023-01-28T23:34:41.572Z,6.31
2023-01-28T23:37:08.189Z,6.10
2023-01-28T23:39:34.799Z,6.23
2023-01-28T23:42:01.540Z,6.37
2023-01-28T23:44:28.210Z,6.44
2023-01-28T23:46:55.000Z,6.45
2023-01-28T23:49:21.687Z,6.54
2023-01-28T23:51:48.381Z,6.42
2023-01-28T23:54:14.963Z,6.28
2023-01-28T23:56:41.613Z,6.33
2023-01-28T23:59:08.225Z,6.42
